sensor_id;sensor_type;location;lat;lon;timestamp;P1;durP1;ratioP1;P2;durP2;ratioP2
68872;SDS011;55907;50.806;12.882;2023-07-31T00:01:08;744.9;;;676.4;;
68872;SDS011;55907;50.806;12.882;2023-07-31T00:04:10;756.2;;;686.8;;
68872;SDS011;55907;50.806;12.882;2023-07-31T00:07:11;752.8;;;682.9;;
68872;SDS011;55907;50.806;12.882;2023-07-31T00:10:13;749.6;;;679.8;;
68872;SDS011;55907;50.806;12.882;2023-07-31T00:13:14;749.4;;;679.2;;
68872;SDS011;55907;50.806;12.882;2023-07-31T00:16:16;743.4;;;673.9;;
68872;SDS011;55907;50.806;12.882;2023-07-31T00:19:17;745.3;;;675.8;;
68872;SDS011;55907;50.806;12.882;2023-07-31T00:22:18;752.5;;;681.9;;
68872;SDS011;55907;50.806;12.882;2023-07-31T00:25:20;744.7;;;674.7;;
68872;SDS011;55907;50.806;12.882;2023-07-31T00:28:21;741.6;;;672.6;;
68872;SDS011;55907;50.806;12.882;2023-07-31T00:31:23;732.7;;;664.4;;
68872;SDS011;55907;50.806;12.882;2023-07-31T00:34:24;730.9;;;663.8;;
68872;SDS011;55907;50.806;12.882;2023-07-31T00:37:26;740.1;;;672.4;;
68872;SDS011;55907;50.806;12.882;2023-07-31T00:40:27;738.8;;;671.5;;
68872;SDS011;55907;50.806;12.882;2023-07-31T00:43:29;749.3;;;681.4;;
68872;SDS011;55907;50.806;12.882;2023-07-31T00:46:30;755.2;;;687.1;;
68872;SDS011;55907;50.806;12.882;2023-07-31T00:49:32;757.4;;;688.4;;
68872;SDS011;55907;50.806;12.882;2023-07-31T00:52:33;758.0;;;689.1;;
68872;SDS011;55907;50.806;12.882;2023-07-31T00:55:35;756.0;;;687.4;;
68872;SDS011;55907;50.806;12.882;2023-07-31T00:58:36;758.3;;;690.3;;
68872;SDS011;55907;50.806;12.882;2023-07-31T01:01:38;749.9;;;683.4;;
68872;SDS011;55907;50.806;12.882;2023-07-31T01:04:39;749.2;;;683.3;;
68872;SDS011;55907;50.806;12.882;2023-07-31T01:07:42;751.5;;;686.3;;
68872;SDS011;55907;50.806;12.882;2023-07-31T01:10:45;750.8;;;686.5;;
68872;SDS011;55907;50.806;12.882;2023-07-31T01:13:44;764.4;;;698.7;;
68872;SDS011;55907;50.806;12.882;2023-07-31T01:16:45;783.3;;;716.3;;
68872;SDS011;55907;50.806;12.882;2023-07-31T01:19:46;795.7;;;727.8;;
68872;SDS011;55907;50.806;12.882;2023-07-31T01:22:54;808.0;;;738.8;;
68872;SDS011;55907;50.806;12.882;2023-07-31T01:25:53;822.7;;;751.9;;
68872;SDS011;55907;50.806;12.882;2023-07-31T01:28:54;836.1;;;763.4;;
68872;SDS011;55907;50.806;12.882;2023-07-31T01:31:53;854.4;;;779.3;;
68872;SDS011;55907;50.806;12.882;2023-07-31T01:34:54;868.2;;;791.0;;
68872;SDS011;55907;50.806;12.882;2023-07-31T01:37:55;889.3;;;809.7;;
68872;SDS011;55907;50.806;12.882;2023-07-31T01:40:57;895.4;;;814.5;;
68872;SDS011;55907;50.806;12.882;2023-07-31T01:43:58;905.4;;;823.3;;
68872;SDS011;55907;50.806;12.882;2023-07-31T01:47:00;905.3;;;822.1;;
68872;SDS011;55907;50.806;12.882;2023-07-31T01:50:01;920.3;;;834.9;;
68872;SDS011;55907;50.806;12.882;2023-07-31T01:53:02;929.7;;;842.8;;
68872;SDS011;55907;50.806;12.882;2023-07-31T01:56:04;926.8;;;840.0;;
68872;SDS011;55907;50.806;12.882;2023-07-31T01:59:05;916.1;;;830.8;;
68872;SDS011;55907;50.806;12.882;2023-07-31T02:02:07;921.0;;;834.6;;
68872;SDS011;55907;50.806;12.882;2023-07-31T02:05:08;914.0;;;828.6;;
68872;SDS011;55907;50.806;12.882;2023-07-31T02:08:10;904.6;;;820.4;;
68872;SDS011;55907;50.806;12.882;2023-07-31T02:11:11;888.7;;;807.6;;
68872;SDS011;55907;50.806;12.882;2023-07-31T02:14:13;854.7;;;779.1;;
68872;SDS011;55907;50.806;12.882;2023-07-31T02:17:14;825.6;;;754.3;;
68872;SDS011;55907;50.806;12.882;2023-07-31T02:20:16;763.2;;;697.7;;
68872;SDS011;55907;50.806;12.882;2023-07-31T02:23:17;706.6;;;645.0;;
68872;SDS011;55907;50.806;12.882;2023-07-31T02:26:19;682.4;;;621.5;;
68872;SDS011;55907;50.806;12.882;2023-07-31T02:29:20;651.1;;;593.3;;
68872;SDS011;55907;50.806;12.882;2023-07-31T02:32:22;635.1;;;580.5;;
68872;SDS011;55907;50.806;12.882;2023-07-31T02:35:23;610.2;;;560.4;;
68872;SDS011;55907;50.806;12.882;2023-07-31T02:38:24;560.8;;;518.6;;
68872;SDS011;55907;50.806;12.882;2023-07-31T02:41:26;564.9;;;524.1;;
68872;SDS011;55907;50.806;12.882;2023-07-31T02:44:27;584.2;;;541.9;;
68872;SDS011;55907;50.806;12.882;2023-07-31T02:47:29;612.0;;;567.2;;
68872;SDS011;55907;50.806;12.882;2023-07-31T02:50:30;621.5;;;575.3;;
68872;SDS011;55907;50.806;12.882;2023-07-31T02:53:32;626.6;;;579.8;;
68872;SDS011;55907;50.806;12.882;2023-07-31T02:56:33;619.1;;;572.2;;
68872;SDS011;55907;50.806;12.882;2023-07-31T02:59:35;607.9;;;561.4;;
68872;SDS011;55907;50.806;12.882;2023-07-31T03:02:36;611.4;;;564.2;;
68872;SDS011;55907;50.806;12.882;2023-07-31T03:05:38;599.9;;;554.7;;
68872;SDS011;55907;50.806;12.882;2023-07-31T03:08:39;607.7;;;563.5;;
68872;SDS011;55907;50.806;12.882;2023-07-31T03:11:41;596.4;;;554.5;;
68872;SDS011;55907;50.806;12.882;2023-07-31T03:14:42;563.3;;;525.1;;
68872;SDS011;55907;50.806;12.882;2023-07-31T03:17:44;512.7;;;479.0;;
68872;SDS011;55907;50.806;12.882;2023-07-31T03:20:45;436.4;;;407.9;;
68872;SDS011;55907;50.806;12.882;2023-07-31T03:23:47;377.4;;;352.6;;
68872;SDS011;55907;50.806;12.882;2023-07-31T03:26:48;345.0;;;321.5;;
68872;SDS011;55907;50.806;12.882;2023-07-31T03:29:50;313.1;;;292.0;;
68872;SDS011;55907;50.806;12.882;2023-07-31T03:32:51;319.4;;;297.8;;
68872;SDS011;55907;50.806;12.882;2023-07-31T03:35:53;335.0;;;312.7;;
68872;SDS011;55907;50.806;12.882;2023-07-31T03:38:54;359.8;;;335.4;;
68872;SDS011;55907;50.806;12.882;2023-07-31T03:41:56;374.8;;;349.5;;
68872;SDS011;55907;50.806;12.882;2023-07-31T03:44:57;396.7;;;369.7;;
68872;SDS011;55907;50.806;12.882;2023-07-31T03:47:59;404.2;;;376.5;;
68872;SDS011;55907;50.806;12.882;2023-07-31T03:51:00;430.7;;;400.5;;
68872;SDS011;55907;50.806;12.882;2023-07-31T03:54:02;446.2;;;414.6;;
68872;SDS011;55907;50.806;12.882;2023-07-31T03:57:03;461.6;;;428.0;;
68872;SDS011;55907;50.806;12.882;2023-07-31T04:00:05;485.8;;;449.8;;
68872;SDS011;55907;50.806;12.882;2023-07-31T04:03:06;504.9;;;466.4;;
68872;SDS011;55907;50.806;12.882;2023-07-31T04:06:07;535.9;;;494.1;;
68872;SDS011;55907;50.806;12.882;2023-07-31T04:09:09;565.0;;;520.2;;
68872;SDS011;55907;50.806;12.882;2023-07-31T04:12:10;617.2;;;567.4;;
68872;SDS011;55907;50.806;12.882;2023-07-31T04:15:12;663.5;;;608.5;;
68872;SDS011;55907;50.806;12.882;2023-07-31T04:18:13;707.7;;;648.2;;
68872;SDS011;55907;50.806;12.882;2023-07-31T04:21:15;741.2;;;676.8;;
68872;SDS011;55907;50.806;12.882;2023-07-31T04:24:16;783.2;;;713.7;;
68872;SDS011;55907;50.806;12.882;2023-07-31T04:27:18;804.5;;;731.4;;
68872;SDS011;55907;50.806;12.882;2023-07-31T04:30:19;819.8;;;744.8;;
68872;SDS011;55907;50.806;12.882;2023-07-31T04:33:21;851.9;;;772.3;;
68872;SDS011;55907;50.806;12.882;2023-07-31T04:36:22;861.7;;;780.5;;
68872;SDS011;55907;50.806;12.882;2023-07-31T04:39:24;869.5;;;786.5;;
68872;SDS011;55907;50.806;12.882;2023-07-31T04:42:25;881.2;;;796.1;;
68872;SDS011;55907;50.806;12.882;2023-07-31T04:45:27;891.2;;;804.3;;
68872;SDS011;55907;50.806;12.882;2023-07-31T04:48:28;890.6;;;804.1;;
68872;SDS011;55907;50.806;12.882;2023-07-31T04:51:30;896.7;;;809.7;;
68872;SDS011;55907;50.806;12.882;2023-07-31T04:54:31;899.6;;;811.1;;
68872;SDS011;55907;50.806;12.882;2023-07-31T04:57:33;899.8;;;811.4;;
68872;SDS011;55907;50.806;12.882;2023-07-31T05:00:34;899.1;;;810.6;;
68872;SDS011;55907;50.806;12.882;2023-07-31T05:03:36;907.6;;;816.9;;
68872;SDS011;55907;50.806;12.882;2023-07-31T05:06:37;900.1;;;811.4;;
68872;SDS011;55907;50.806;12.882;2023-07-31T05:09:39;899.9;;;810.9;;
68872;SDS011;55907;50.806;12.882;2023-07-31T05:12:40;892.7;;;804.7;;
68872;SDS011;55907;50.806;12.882;2023-07-31T05:15:42;890.5;;;804.0;;
68872;SDS011;55907;50.806;12.882;2023-07-31T05:18:43;894.1;;;807.0;;
68872;SDS011;55907;50.806;12.882;2023-07-31T05:21:44;893.5;;;806.0;;
68872;SDS011;55907;50.806;12.882;2023-07-31T05:24:46;897.8;;;809.5;;
68872;SDS011;55907;50.806;12.882;2023-07-31T05:27:47;896.5;;;808.7;;
68872;SDS011;55907;50.806;12.882;2023-07-31T05:30:49;897.9;;;809.5;;
68872;SDS011;55907;50.806;12.882;2023-07-31T05:33:50;904.1;;;814.4;;
68872;SDS011;55907;50.806;12.882;2023-07-31T05:36:52;907.2;;;816.0;;
68872;SDS011;55907;50.806;12.882;2023-07-31T05:39:53;908.9;;;817.8;;
68872;SDS011;55907;50.806;12.882;2023-07-31T05:42:55;917.9;;;823.9;;
68872;SDS011;55907;50.806;12.882;2023-07-31T05:45:56;936.3;;;839.4;;
68872;SDS011;55907;50.806;12.882;2023-07-31T05:48:58;933.0;;;836.3;;
68872;SDS011;55907;50.806;12.882;2023-07-31T05:51:59;939.9;;;841.1;;
68872;SDS011;55907;50.806;12.882;2023-07-31T05:55:01;944.2;;;844.8;;
68872;SDS011;55907;50.806;12.882;2023-07-31T05:58:02;959.3;;;857.6;;
68872;SDS011;55907;50.806;12.882;2023-07-31T06:01:04;962.9;;;860.8;;
68872;SDS011;55907;50.806;12.882;2023-07-31T06:04:05;966.0;;;863.5;;
68872;SDS011;55907;50.806;12.882;2023-07-31T06:07:07;977.3;;;872.6;;
68872;SDS011;55907;50.806;12.882;2023-07-31T06:10:08;970.9;;;868.2;;
68872;SDS011;55907;50.806;12.882;2023-07-31T06:13:10;966.6;;;864.6;;
68872;SDS011;55907;50.806;12.882;2023-07-31T06:16:11;954.8;;;855.6;;
68872;SDS011;55907;50.806;12.882;2023-07-31T06:19:13;946.7;;;849.4;;
68872;SDS011;55907;50.806;12.882;2023-07-31T06:22:14;939.8;;;842.7;;
68872;SDS011;55907;50.806;12.882;2023-07-31T06:25:16;934.0;;;838.9;;
68872;SDS011;55907;50.806;12.882;2023-07-31T06:28:17;923.1;;;829.7;;
68872;SDS011;55907;50.806;12.882;2023-07-31T06:31:19;913.0;;;821.3;;
68872;SDS011;55907;50.806;12.882;2023-07-31T06:34:20;906.6;;;816.5;;
68872;SDS011;55907;50.806;12.882;2023-07-31T06:37:21;908.0;;;818.7;;
68872;SDS011;55907;50.806;12.882;2023-07-31T06:40:23;896.4;;;808.9;;
68872;SDS011;55907;50.806;12.882;2023-07-31T06:43:24;901.0;;;813.2;;
68872;SDS011;55907;50.806;12.882;2023-07-31T06:46:26;892.0;;;806.2;;
68872;SDS011;55907;50.806;12.882;2023-07-31T06:49:27;885.4;;;801.7;;
68872;SDS011;55907;50.806;12.882;2023-07-31T06:52:29;887.4;;;803.9;;
68872;SDS011;55907;50.806;12.882;2023-07-31T06:55:30;872.2;;;791.2;;
68872;SDS011;55907;50.806;12.882;2023-07-31T06:58:32;876.4;;;794.9;;
68872;SDS011;55907;50.806;12.882;2023-07-31T07:01:33;879.9;;;799.5;;
68872;SDS011;55907;50.806;12.882;2023-07-31T07:04:35;881.6;;;801.3;;
68872;SDS011;55907;50.806;12.882;2023-07-31T07:07:36;886.1;;;806.9;;
68872;SDS011;55907;50.806;12.882;2023-07-31T07:10:38;900.5;;;821.5;;
68872;SDS011;55907;50.806;12.882;2023-07-31T07:13:39;906.6;;;827.6;;
68872;SDS011;55907;50.806;12.882;2023-07-31T07:16:41;928.8;;;848.7;;
68872;SDS011;55907;50.806;12.882;2023-07-31T07:19:42;933.0;;;853.8;;
68872;SDS011;55907;50.806;12.882;2023-07-31T07:22:43;936.5;;;857.2;;
68872;SDS011;55907;50.806;12.882;2023-07-31T07:25:45;930.4;;;852.3;;
68872;SDS011;55907;50.806;12.882;2023-07-31T07:28:46;927.2;;;850.4;;
68872;SDS011;55907;50.806;12.882;2023-07-31T07:31:48;917.9;;;843.1;;
68872;SDS011;55907;50.806;12.882;2023-07-31T07:34:49;907.1;;;834.2;;
68872;SDS011;55907;50.806;12.882;2023-07-31T07:37:51;906.2;;;833.8;;
68872;SDS011;55907;50.806;12.882;2023-07-31T07:40:52;914.0;;;841.1;;
68872;SDS011;55907;50.806;12.882;2023-07-31T07:43:54;910.0;;;837.6;;
68872;SDS011;55907;50.806;12.882;2023-07-31T07:46:55;889.3;;;818.6;;
68872;SDS011;55907;50.806;12.882;2023-07-31T07:49:57;846.1;;;778.3;;
68872;SDS011;55907;50.806;12.882;2023-07-31T07:52:58;808.3;;;743.0;;
68872;SDS011;55907;50.806;12.882;2023-07-31T07:55:59;768.2;;;706.0;;
68872;SDS011;55907;50.806;12.882;2023-07-31T07:59:01;729.6;;;670.5;;
68872;SDS011;55907;50.806;12.882;2023-07-31T08:02:02;691.2;;;635.6;;
68872;SDS011;55907;50.806;12.882;2023-07-31T08:05:04;652.9;;;600.9;;
68872;SDS011;55907;50.806;12.882;2023-07-31T08:08:05;611.8;;;564.5;;
68872;SDS011;55907;50.806;12.882;2023-07-31T08:11:07;586.4;;;542.7;;
68872;SDS011;55907;50.806;12.882;2023-07-31T08:14:08;560.1;;;519.3;;
68872;SDS011;55907;50.806;12.882;2023-07-31T08:17:09;560.5;;;520.2;;
68872;SDS011;55907;50.806;12.882;2023-07-31T08:20:11;556.3;;;516.9;;
68872;SDS011;55907;50.806;12.882;2023-07-31T08:23:12;544.4;;;506.7;;
68872;SDS011;55907;50.806;12.882;2023-07-31T08:26:14;535.2;;;498.6;;
68872;SDS011;55907;50.806;12.882;2023-07-31T08:29:15;523.5;;;487.8;;
68872;SDS011;55907;50.806;12.882;2023-07-31T08:32:17;503.4;;;469.7;;
68872;SDS011;55907;50.806;12.882;2023-07-31T08:35:18;498.6;;;465.8;;
68872;SDS011;55907;50.806;12.882;2023-07-31T08:38:20;481.7;;;450.2;;
68872;SDS011;55907;50.806;12.882;2023-07-31T08:41:21;464.3;;;434.2;;
68872;SDS011;55907;50.806;12.882;2023-07-31T08:44:23;448.4;;;419.4;;
68872;SDS011;55907;50.806;12.882;2023-07-31T08:47:25;440.5;;;412.0;;
68872;SDS011;55907;50.806;12.882;2023-07-31T08:50:25;436.1;;;407.8;;
68872;SDS011;55907;50.806;12.882;2023-07-31T08:53:27;404.8;;;378.7;;
68872;SDS011;55907;50.806;12.882;2023-07-31T08:56:28;389.6;;;364.3;;
68872;SDS011;55907;50.806;12.882;2023-07-31T08:59:30;381.9;;;356.9;;
68872;SDS011;55907;50.806;12.882;2023-07-31T09:02:35;367.4;;;343.4;;
68872;SDS011;55907;50.806;12.882;2023-07-31T09:05:33;339.8;;;317.2;;
68872;SDS011;55907;50.806;12.882;2023-07-31T09:08:34;339.5;;;316.7;;
68872;SDS011;55907;50.806;12.882;2023-07-31T09:11:35;342.7;;;319.5;;
68872;SDS011;55907;50.806;12.882;2023-07-31T09:14:37;353.7;;;329.7;;
68872;SDS011;55907;50.806;12.882;2023-07-31T09:17:38;347.5;;;323.4;;
68872;SDS011;55907;50.806;12.882;2023-07-31T09:20:40;348.6;;;324.3;;
68872;SDS011;55907;50.806;12.882;2023-07-31T09:23:41;373.7;;;347.7;;
68872;SDS011;55907;50.806;12.882;2023-07-31T09:26:43;374.9;;;348.8;;
68872;SDS011;55907;50.806;12.882;2023-07-31T09:29:44;405.2;;;376.8;;
68872;SDS011;55907;50.806;12.882;2023-07-31T09:32:46;423.3;;;393.4;;
68872;SDS011;55907;50.806;12.882;2023-07-31T09:35:47;452.4;;;420.2;;
68872;SDS011;55907;50.806;12.882;2023-07-31T09:38:48;479.5;;;445.2;;
68872;SDS011;55907;50.806;12.882;2023-07-31T09:41:53;509.9;;;473.2;;
68872;SDS011;55907;50.806;12.882;2023-07-31T09:44:51;545.5;;;505.6;;
68872;SDS011;55907;50.806;12.882;2023-07-31T09:47:53;582.7;;;539.9;;
68872;SDS011;55907;50.806;12.882;2023-07-31T09:50:54;618.3;;;572.9;;
68872;SDS011;55907;50.806;12.882;2023-07-31T09:53:55;676.9;;;627.3;;
68872;SDS011;55907;50.806;12.882;2023-07-31T09:56:57;734.3;;;680.7;;
68872;SDS011;55907;50.806;12.882;2023-07-31T09:59:58;792.0;;;734.4;;
68872;SDS011;55907;50.806;12.882;2023-07-31T10:03:00;853.9;;;793.2;;
68872;SDS011;55907;50.806;12.882;2023-07-31T10:06:01;878.8;;;816.8;;
68872;SDS011;55907;50.806;12.882;2023-07-31T10:09:03;840.8;;;781.5;;
68872;SDS011;55907;50.806;12.882;2023-07-31T10:12:05;762.2;;;706.9;;
68872;SDS011;55907;50.806;12.882;2023-07-31T10:15:06;768.9;;;711.1;;
68872;SDS011;55907;50.806;12.882;2023-07-31T10:18:07;787.0;;;726.0;;
68872;SDS011;55907;50.806;12.882;2023-07-31T10:21:08;813.8;;;748.1;;
68872;SDS011;55907;50.806;12.882;2023-07-31T10:24:10;818.4;;;751.1;;
68872;SDS011;55907;50.806;12.882;2023-07-31T10:27:11;786.9;;;720.8;;
68872;SDS011;55907;50.806;12.882;2023-07-31T10:30:14;822.4;;;749.7;;
68872;SDS011;55907;50.806;12.882;2023-07-31T10:33:14;867.9;;;789.7;;
68872;SDS011;55907;50.806;12.882;2023-07-31T10:36:16;896.9;;;813.5;;
68872;SDS011;55907;50.806;12.882;2023-07-31T10:42:18;1012.9;;;910.9;;
68872;SDS011;55907;50.806;12.882;2023-07-31T10:45:24;1032.2;;;931.6;;
68872;SDS011;55907;50.806;12.882;2023-07-31T10:48:21;983.2;;;897.4;;
68872;SDS011;55907;50.806;12.882;2023-07-31T10:51:22;849.3;;;782.8;;
68872;SDS011;55907;50.806;12.882;2023-07-31T10:54:24;654.7;;;605.5;;
68872;SDS011;55907;50.806;12.882;2023-07-31T10:57:25;608.8;;;564.3;;
68872;SDS011;55907;50.806;12.882;2023-07-31T11:00:27;618.9;;;569.2;;
68872;SDS011;55907;50.806;12.882;2023-07-31T11:06:29;647.1;;;587.2;;
68872;SDS011;55907;50.806;12.882;2023-07-31T11:09:31;696.6;;;626.4;;
68872;SDS011;55907;50.806;12.882;2023-07-31T11:12:32;742.8;;;665.4;;
68872;SDS011;55907;50.806;12.882;2023-07-31T11:15:34;747.7;;;670.2;;
68872;SDS011;55907;50.806;12.882;2023-07-31T11:18:35;770.0;;;689.2;;
68872;SDS011;55907;50.806;12.882;2023-07-31T11:21:36;783.0;;;701.3;;
68872;SDS011;55907;50.806;12.882;2023-07-31T11:24:38;788.9;;;708.4;;
68872;SDS011;55907;50.806;12.882;2023-07-31T11:27:39;813.8;;;728.2;;
68872;SDS011;55907;50.806;12.882;2023-07-31T11:30:41;813.1;;;732.1;;
68872;SDS011;55907;50.806;12.882;2023-07-31T11:33:42;843.0;;;755.2;;
68872;SDS011;55907;50.806;12.882;2023-07-31T11:36:52;830.2;;;748.4;;
68872;SDS011;55907;50.806;12.882;2023-07-31T11:42:46;847.0;;;767.8;;
68872;SDS011;55907;50.806;12.882;2023-07-31T11:45:48;860.1;;;782.2;;
68872;SDS011;55907;50.806;12.882;2023-07-31T11:48:49;871.2;;;792.5;;
68872;SDS011;55907;50.806;12.882;2023-07-31T11:54:52;866.5;;;788.9;;
68872;SDS011;55907;50.806;12.882;2023-07-31T11:57:54;858.4;;;778.6;;
68872;SDS011;55907;50.806;12.882;2023-07-31T12:00:54;857.8;;;778.4;;
68872;SDS011;55907;50.806;12.882;2023-07-31T12:03:56;851.6;;;773.7;;
68872;SDS011;55907;50.806;12.882;2023-07-31T12:06:59;855.0;;;777.0;;
68872;SDS011;55907;50.806;12.882;2023-07-31T12:09:59;887.2;;;806.3;;
68872;SDS011;55907;50.806;12.882;2023-07-31T12:13:01;901.8;;;821.2;;
68872;SDS011;55907;50.806;12.882;2023-07-31T12:16:02;937.7;;;855.1;;
68872;SDS011;55907;50.806;12.882;2023-07-31T12:19:03;950.9;;;867.3;;
68872;SDS011;55907;50.806;12.882;2023-07-31T12:22:10;934.0;;;851.9;;
68872;SDS011;55907;50.806;12.882;2023-07-31T12:25:06;970.9;;;886.7;;
68872;SDS011;55907;50.806;12.882;2023-07-31T12:28:07;968.2;;;884.9;;
68872;SDS011;55907;50.806;12.882;2023-07-31T12:31:09;973.4;;;888.5;;
68872;SDS011;55907;50.806;12.882;2023-07-31T12:34:15;990.7;;;904.7;;
68872;SDS011;55907;50.806;12.882;2023-07-31T12:37:11;1037.1;;;942.8;;
68872;SDS011;55907;50.806;12.882;2023-07-31T12:40:13;1056.5;;;960.6;;
68872;SDS011;55907;50.806;12.882;2023-07-31T12:43:15;1094.6;;;991.0;;
68872;SDS011;55907;50.806;12.882;2023-07-31T12:46:15;1126.7;;;999.9;;
68872;SDS011;55907;50.806;12.882;2023-07-31T12:49:17;1126.0;;;999.9;;
68872;SDS011;55907;50.806;12.882;2023-07-31T12:52:18;1146.2;;;999.9;;
68872;SDS011;55907;50.806;12.882;2023-07-31T12:55:19;1152.8;;;999.9;;
68872;SDS011;55907;50.806;12.882;2023-07-31T12:58:21;1148.9;;;999.9;;
68872;SDS011;55907;50.806;12.882;2023-07-31T13:01:22;1140.8;;;999.9;;
68872;SDS011;55907;50.806;12.882;2023-07-31T13:04:24;1147.3;;;999.9;;
68872;SDS011;55907;50.806;12.882;2023-07-31T13:07:26;1140.8;;;999.9;;
68872;SDS011;55907;50.806;12.882;2023-07-31T13:10:27;1142.2;;;999.9;;
68872;SDS011;55907;50.806;12.882;2023-07-31T13:13:28;1148.3;;;999.9;;
68872;SDS011;55907;50.806;12.882;2023-07-31T13:16:29;1156.5;;;999.9;;
68872;SDS011;55907;50.806;12.882;2023-07-31T13:19:31;1160.9;;;999.9;;
68872;SDS011;55907;50.806;12.882;2023-07-31T13:22:32;1164.0;;;999.9;;
68872;SDS011;55907;50.806;12.882;2023-07-31T13:25:33;1157.1;;;999.9;;
68872;SDS011;55907;50.806;12.882;2023-07-31T13:31:36;1158.0;;;999.9;;
68872;SDS011;55907;50.806;12.882;2023-07-31T13:34:37;1154.0;;;999.9;;
68872;SDS011;55907;50.806;12.882;2023-07-31T13:37:39;1159.3;;;999.9;;
68872;SDS011;55907;50.806;12.882;2023-07-31T13:40:40;1165.0;;;999.9;;
68872;SDS011;55907;50.806;12.882;2023-07-31T13:43:42;1179.4;;;999.9;;
68872;SDS011;55907;50.806;12.882;2023-07-31T13:46:43;1178.9;;;999.9;;
68872;SDS011;55907;50.806;12.882;2023-07-31T13:49:44;1181.2;;;999.9;;
68872;SDS011;55907;50.806;12.882;2023-07-31T13:52:46;1187.7;;;999.9;;
68872;SDS011;55907;50.806;12.882;2023-07-31T13:55:47;1179.8;;;999.9;;
68872;SDS011;55907;50.806;12.882;2023-07-31T13:58:48;1184.0;;;999.9;;
68872;SDS011;55907;50.806;12.882;2023-07-31T14:01:50;1177.8;;;999.9;;
68872;SDS011;55907;50.806;12.882;2023-07-31T14:04:51;1175.9;;;999.9;;
68872;SDS011;55907;50.806;12.882;2023-07-31T14:07:53;1166.9;;;999.9;;
68872;SDS011;55907;50.806;12.882;2023-07-31T14:10:54;1164.1;;;999.9;;
68872;SDS011;55907;50.806;12.882;2023-07-31T14:13:55;1164.9;;;999.9;;
68872;SDS011;55907;50.806;12.882;2023-07-31T14:16:57;1164.6;;;999.9;;
68872;SDS011;55907;50.806;12.882;2023-07-31T14:19:58;1163.9;;;999.9;;
68872;SDS011;55907;50.806;12.882;2023-07-31T14:23:00;1163.1;;;999.9;;
68872;SDS011;55907;50.806;12.882;2023-07-31T14:26:01;1159.4;;;999.9;;
68872;SDS011;55907;50.806;12.882;2023-07-31T14:29:02;1171.1;;;999.9;;
68872;SDS011;55907;50.806;12.882;2023-07-31T14:32:04;1164.2;;;999.9;;
68872;SDS011;55907;50.806;12.882;2023-07-31T14:35:05;1173.5;;;999.9;;
68872;SDS011;55907;50.806;12.882;2023-07-31T14:38:06;1195.0;;;999.9;;
68872;SDS011;55907;50.806;12.882;2023-07-31T14:41:08;1200.0;;;999.9;;
68872;SDS011;55907;50.806;12.882;2023-07-31T14:44:09;1193.9;;;999.9;;
68872;SDS011;55907;50.806;12.882;2023-07-31T14:47:11;1184.4;;;999.9;;
68872;SDS011;55907;50.806;12.882;2023-07-31T14:50:12;1206.3;;;999.9;;
68872;SDS011;55907;50.806;12.882;2023-07-31T14:53:13;1188.0;;;999.9;;
68872;SDS011;55907;50.806;12.882;2023-07-31T14:56:15;1180.3;;;999.9;;
68872;SDS011;55907;50.806;12.882;2023-07-31T14:59:16;1175.5;;;999.9;;
68872;SDS011;55907;50.806;12.882;2023-07-31T15:02:18;1168.5;;;999.9;;
68872;SDS011;55907;50.806;12.882;2023-07-31T15:05:19;1177.8;;;999.9;;
68872;SDS011;55907;50.806;12.882;2023-07-31T15:08:20;1189.9;;;999.9;;
68872;SDS011;55907;50.806;12.882;2023-07-31T15:11:22;1168.3;;;999.9;;
68872;SDS011;55907;50.806;12.882;2023-07-31T15:14:23;1156.2;;;999.9;;
68872;SDS011;55907;50.806;12.882;2023-07-31T15:17:25;1150.9;;;999.9;;
68872;SDS011;55907;50.806;12.882;2023-07-31T15:20:26;1118.9;;;999.9;;
68872;SDS011;55907;50.806;12.882;2023-07-31T15:23:27;1082.0;;;982.5;;
68872;SDS011;55907;50.806;12.882;2023-07-31T15:26:29;1060.4;;;963.0;;
68872;SDS011;55907;50.806;12.882;2023-07-31T15:29:30;1044.7;;;949.6;;
68872;SDS011;55907;50.806;12.882;2023-07-31T15:32:32;1019.1;;;926.5;;
68872;SDS011;55907;50.806;12.882;2023-07-31T15:35:33;1009.6;;;917.1;;
68872;SDS011;55907;50.806;12.882;2023-07-31T15:38:34;1028.0;;;932.8;;
68872;SDS011;55907;50.806;12.882;2023-07-31T15:41:36;1040.0;;;943.0;;
68872;SDS011;55907;50.806;12.882;2023-07-31T15:44:37;1060.0;;;961.0;;
68872;SDS011;55907;50.806;12.882;2023-07-31T15:47:39;1087.7;;;984.5;;
68872;SDS011;55907;50.806;12.882;2023-07-31T15:50:40;1122.2;;;999.9;;
68872;SDS011;55907;50.806;12.882;2023-07-31T15:53:41;1153.5;;;999.9;;
68872;SDS011;55907;50.806;12.882;2023-07-31T15:56:43;1165.7;;;999.9;;
68872;SDS011;55907;50.806;12.882;2023-07-31T15:59:44;1175.2;;;999.9;;
68872;SDS011;55907;50.806;12.882;2023-07-31T16:02:46;1172.3;;;999.9;;
68872;SDS011;55907;50.806;12.882;2023-07-31T16:05:47;1173.2;;;999.9;;
68872;SDS011;55907;50.806;12.882;2023-07-31T16:08:48;1161.7;;;999.9;;
68872;SDS011;55907;50.806;12.882;2023-07-31T16:11:50;1157.2;;;999.9;;
68872;SDS011;55907;50.806;12.882;2023-07-31T16:14:51;1147.0;;;999.9;;
68872;SDS011;55907;50.806;12.882;2023-07-31T16:17:52;1137.8;;;999.9;;
68872;SDS011;55907;50.806;12.882;2023-07-31T16:20:54;1131.9;;;999.9;;
68872;SDS011;55907;50.806;12.882;2023-07-31T16:23:55;1122.1;;;999.9;;
68872;SDS011;55907;50.806;12.882;2023-07-31T16:26:57;1109.3;;;999.9;;
68872;SDS011;55907;50.806;12.882;2023-07-31T16:29:58;1091.4;;;985.3;;
68872;SDS011;55907;50.806;12.882;2023-07-31T16:32:59;1090.3;;;984.9;;
68872;SDS011;55907;50.806;12.882;2023-07-31T16:36:01;1068.9;;;967.0;;
68872;SDS011;55907;50.806;12.882;2023-07-31T16:39:02;1059.4;;;958.4;;
68872;SDS011;55907;50.806;12.882;2023-07-31T16:42:04;1067.7;;;965.6;;
68872;SDS011;55907;50.806;12.882;2023-07-31T16:45:06;1063.1;;;962.4;;
68872;SDS011;55907;50.806;12.882;2023-07-31T16:48:07;1054.2;;;953.9;;
68872;SDS011;55907;50.806;12.882;2023-07-31T16:51:08;1053.3;;;953.4;;
68872;SDS011;55907;50.806;12.882;2023-07-31T16:54:09;1040.0;;;942.4;;
68872;SDS011;55907;50.806;12.882;2023-07-31T16:57:11;1040.2;;;942.8;;
68872;SDS011;55907;50.806;12.882;2023-07-31T17:00:12;1040.0;;;942.8;;
68872;SDS011;55907;50.806;12.882;2023-07-31T17:03:13;1027.7;;;931.9;;
68872;SDS011;55907;50.806;12.882;2023-07-31T17:06:15;1033.1;;;936.6;;
68872;SDS011;55907;50.806;12.882;2023-07-31T17:09:16;1038.9;;;941.5;;
68872;SDS011;55907;50.806;12.882;2023-07-31T17:12:18;1031.1;;;935.0;;
68872;SDS011;55907;50.806;12.882;2023-07-31T17:15:19;1033.4;;;937.8;;
68872;SDS011;55907;50.806;12.882;2023-07-31T17:18:20;1020.6;;;926.3;;
68872;SDS011;55907;50.806;12.882;2023-07-31T17:21:22;1023.0;;;929.0;;
68872;SDS011;55907;50.806;12.882;2023-07-31T17:24:23;1015.8;;;923.0;;
68872;SDS011;55907;50.806;12.882;2023-07-31T17:27:25;1006.1;;;915.7;;
68872;SDS011;55907;50.806;12.882;2023-07-31T17:30:26;1005.4;;;914.6;;
68872;SDS011;55907;50.806;12.882;2023-07-31T17:33:27;996.0;;;907.2;;
68872;SDS011;55907;50.806;12.882;2023-07-31T17:36:29;977.6;;;891.0;;